首页
METAR-TAF:

METAR-TAF

机场 :

珀斯機場

珀斯, 澳大利亚

纬度: 31-56S, 经度: 115-57E, 海拔: 20米

当前天气观测

该预报发布于41分钟前的01:30 UTC
风速12节,风向
温度 13°C
湿度 62%
气压 1025 hPa
能见度10公里或以上
少量云层高于3500英尺

METAR: YPPH 220130Z 19012KT 9999 FEW035 13/06 Q1025 NOSIG

时间: 10:11 (02:11 UTC)

预报

该预报发布于3小时和11分钟前的23:00 UTC
预报有效从22日的 00点(UTC)到 23日的 06点(UTC)
风速6节,风向
能见度10公里或以上
1500米以下无云,无积雨云
从 22日的 0300点(UTC)
风速12节,风向
能见度10公里或以上
散云层高于4000英尺
从 22日的 1200点(UTC)
风速4节,风向东南
能见度10公里或以上
1500米以下无云,无积雨云

TAF: YPPH 212300Z 2200/2306 17006KT CAVOK FM220300 19012KT 9999 SCT040 FM221200 14004KT CAVOK

超过4000个机场的气象观测和天气预报(METAR&TAF报告)。

可查询的气象台以黄色和红色小点在地图上表示。

将鼠标移到小点上方,可查看气象台名称。

然后点击查看天气观测和预报。

如需切换地图:点击带黑十字的绿色按钮放大地图;点击带横线的绿色按钮缩小地图;或者点击绿色箭头查看邻近地区的地图。


METAR-TAF: